Time;durP1;ratioP1;P1;durP2;ratioP2;P2;SDS_P1;SDS_P2;PMS_P1;PMS_P2;Temp;Humidity;BMP_temperature;BMP_pressure;BME280_temperature;BME280_humidity;BME280_pressure;Samples;Min_cycle;Max_cycle;Signal;HPM_P1;HPM_P2
2021/12/23 00:00:29;;;;;;;;;53.50;34.75;;;;;3.72;57.38;101242.91;5031327;28;45593;-66
2021/12/23 00:02:54;;;;;;;;;51.50;40.00;;;;;3.46;57.57;101192.00;5029443;28;45817;-68
2021/12/23 00:05:19;;;;;;;;;50.50;41.00;;;;;3.73;57.54;101239.44;5029168;28;45291;-65
2021/12/23 00:07:45;;;;;;;;;50.25;41.00;;;;;3.30;57.84;101165.44;5029055;28;45209;-66
2021/12/23 00:10:10;;;;;;;;;50.50;38.25;;;;;3.72;57.65;101229.69;5029250;28;45236;-67
2021/12/23 00:12:42;;;;;;;;;50.50;39.00;;;;;3.60;57.92;101202.53;5031014;28;45315;-66
2021/12/23 00:15:17;;;;;;;;;50.75;38.50;;;;;3.41;57.79;101161.75;5028135;28;45152;-66
2021/12/23 00:17:59;;;;;;;;;49.75;40.25;;;;;3.80;57.72;101219.59;5029413;28;45057;-67
2021/12/23 00:25:48;;;;;;;;;42.25;33.25;;;;;3.54;58.52;101196.84;5049865;28;44969;-65
2021/12/23 00:28:13;;;;;;;;;53.75;40.50;;;;;3.41;59.13;101180.22;5041886;28;45116;-65
2021/12/23 00:30:38;;;;;;;;;48.25;37.25;;;;;3.49;58.62;101186.91;5029635;28;45049;-67
2021/12/23 00:33:04;;;;;;;;;57.00;41.50;;;;;3.50;58.11;101187.84;5029799;28;44971;-66
2021/12/23 00:35:29;;;;;;;;;49.75;40.25;;;;;3.57;58.48;101200.59;5029354;28;45164;-65
2021/12/23 00:38:00;;;;;;;;;53.25;42.00;;;;;3.57;58.86;101197.06;5034363;28;44995;-64
2021/12/23 00:40:26;;;;;;;;;61.25;40.75;;;;;3.58;58.71;101190.94;5049706;28;45505;-66
2021/12/23 00:42:51;;;;;;;;;61.25;42.25;;;;;3.52;59.13;101185.28;5043205;28;45619;-65
2021/12/23 00:45:17;;;;;;;;;40.00;35.00;;;;;3.30;58.79;101141.66;5044081;28;44899;-65
2021/12/23 00:47:42;;;;;;;;;54.75;40.00;;;;;3.52;58.86;101188.84;5031596;28;44914;-64
2021/12/23 00:50:08;;;;;;;;;47.50;38.25;;;;;3.41;59.24;101188.16;5043049;28;44882;-66
2021/12/23 00:52:39;;;;;;;;;51.25;39.50;;;;;3.29;59.62;101195.31;5053232;28;45457;-67
2021/12/23 00:55:07;;;;;;;;;54.75;38.75;;;;;3.20;59.50;101168.34;5052008;28;45111;-68
2021/12/23 00:57:37;;;;;;;;;50.75;36.75;;;;;3.20;59.84;101157.78;5040483;28;45061;-65
2021/12/23 01:00:05;;;;;;;;;58.75;40.75;;;;;3.33;59.78;101168.28;5034518;28;45053;-66
2021/12/23 01:02:32;;;;;;;;;38.25;28.50;;;;;3.40;59.77;101174.84;5023658;28;45513;-67
2021/12/23 01:04:59;;;;;;;;;55.00;41.25;;;;;2.99;59.26;101091.34;5017721;28;45035;-66
2021/12/23 01:07:24;;;;;;;;;63.50;43.00;;;;;3.29;59.40;101135.50;5034531;28;44958;-67
2021/12/23 01:09:50;;;;;;;;;56.25;42.00;;;;;3.53;58.84;101171.25;5034892;28;45068;-66
2021/12/23 01:12:19;;;;;;;;;58.00;41.50;;;;;3.35;59.36;101145.53;5034309;28;46092;-66
2021/12/23 01:20:26;;;;;;;;;62.75;42.25;;;;;3.41;59.85;101169.66;5034362;28;45114;-66
2021/12/23 01:22:57;;;;;;;;;56.75;42.25;;;;;3.33;59.73;101163.00;5026882;28;45216;-68
2021/12/23 01:25:23;;;;;;;;;57.50;38.75;;;;;3.35;59.81;101166.66;5014433;28;45117;-68
2021/12/23 01:27:48;;;;;;;;;46.75;36.50;;;;;3.36;59.88;101163.19;5014259;28;45077;-65
2021/12/23 01:30:14;;;;;;;;;52.75;44.00;;;;;2.92;59.89;101077.78;5014277;28;44930;-68
2021/12/23 01:32:40;;;;;;;;;44.75;31.00;;;;;3.11;60.09;101122.06;5023940;28;46656;-66
2021/12/23 01:35:06;;;;;;;;;46.75;37.25;;;;;3.12;60.10;101123.00;5034256;28;44899;-67
2021/12/23 01:37:32;;;;;;;;;50.75;40.25;;;;;3.32;60.26;101156.81;5034094;28;45075;-65
2021/12/23 01:39:57;;;;;;;;;47.00;34.25;;;;;2.94;59.73;101060.31;5033858;28;44917;-65
2021/12/23 01:42:22;;;;;;;;;58.50;39.25;;;;;3.42;59.81;101146.81;5033074;28;46070;-67
2021/12/23 01:44:48;;;;;;;;;55.50;41.25;;;;;3.14;59.76;101122.25;5033725;28;45191;-67
2021/12/23 01:47:13;;;;;;;;;56.00;38.25;;;;;3.40;60.36;101151.06;5031902;28;45411;-68
2021/12/23 01:49:39;;;;;;;;;46.25;37.00;;;;;3.24;60.22;101126.38;5031511;28;44958;-68
2021/12/23 01:52:05;;;;;;;;;44.00;38.50;;;;;3.33;60.31;101131.31;5031554;28;44989;-65
2021/12/23 01:54:30;;;;;;;;;58.75;39.75;;;;;3.27;59.84;101105.44;5033788;28;45228;-65
2021/12/23 01:56:55;;;;;;;;;51.25;39.50;;;;;3.47;59.82;101130.44;5031391;28;45196;-66
2021/12/23 01:59:21;;;;;;;;;50.25;41.50;;;;;3.36;59.88;101113.00;5031813;28;45348;-67
2021/12/23 02:01:46;;;;;;;;;54.75;37.00;;;;;3.12;60.20;101072.84;5033291;28;45056;-68
2021/12/23 02:04:12;;;;;;;;;49.25;40.25;;;;;3.43;60.20;101128.44;5029810;28;45108;-66
2021/12/23 02:06:37;;;;;;;;;44.75;36.25;;;;;3.32;60.11;101106.63;5030009;28;45346;-64
2021/12/23 02:09:04;;;;;;;;;45.25;36.75;;;;;3.37;60.19;101112.22;5030256;28;45185;-64
2021/12/23 02:11:29;;;;;;;;;62.00;39.25;;;;;3.39;60.16;101107.91;5030567;28;45503;-65
2021/12/23 02:13:55;;;;;;;;;64.50;44.00;;;;;3.48;60.30;101119.06;5031713;28;45398;-65
2021/12/23 02:16:20;;;;;;;;;59.00;43.50;;;;;3.54;59.75;101125.53;5033547;28;44877;-65
2021/12/23 02:18:46;;;;;;;;;61.25;43.25;;;;;3.47;60.47;101121.59;5032293;28;44899;-65
2021/12/23 02:21:11;;;;;;;;;44.75;39.00;;;;;3.49;60.23;101120.84;5032939;28;45084;-67
2021/12/23 02:23:36;;;;;;;;;52.50;35.75;;;;;3.41;59.93;101097.44;5031640;28;45004;-66
2021/12/23 02:26:03;;;;;;;;;49.75;37.25;;;;;3.56;59.71;101100.09;5033114;28;45126;-67
2021/12/23 02:28:28;;;;;;;;;47.00;39.25;;;;;3.62;59.97;101111.94;5030013;28;44955;-66
2021/12/23 02:30:55;;;;;;;;;49.25;38.75;;;;;3.67;59.68;101107.84;5030867;28;46547;-66
2021/12/23 02:33:25;;;;;;;;;55.50;39.75;;;;;3.64;59.63;101101.47;5030474;28;45039;-64
2021/12/23 02:35:52;;;;;;;;;53.00;40.50;;;;;3.72;59.46;101100.22;5030194;28;45307;-66
2021/12/23 02:38:18;;;;;;;;;45.75;38.50;;;;;3.80;59.47;101101.56;5031043;28;44934;-67
2021/12/23 02:40:43;;;;;;;;;58.50;40.25;;;;;3.84;58.94;101100.00;5029940;28;45145;-66
2021/12/23 02:43:17;;;;;;;;;53.00;41.00;;;;;3.79;59.40;101101.47;5032284;28;45202;-66
2021/12/23 02:45:44;;;;;;;;;56.00;40.00;;;;;3.74;59.47;101100.28;5030931;28;45151;-63
2021/12/23 02:48:12;;;;;;;;;56.25;42.00;;;;;3.68;59.52;101099.13;5031165;28;44892;-66
2021/12/23 02:50:38;;;;;;;;;52.75;41.75;;;;;3.65;59.48;101100.66;5030695;28;47019;-65
2021/12/23 02:53:03;;;;;;;;;51.75;40.00;;;;;3.70;59.75;101091.28;5028170;28;45001;-67
2021/12/23 02:55:28;;;;;;;;;60.25;38.75;;;;;3.73;59.45;101087.91;5012032;28;45034;-65
2021/12/23 02:57:54;;;;;;;;;53.00;35.50;;;;;3.66;59.46;101081.34;5023736;28;44994;-68
2021/12/23 03:00:19;;;;;;;;;56.00;45.00;;;;;3.49;60.03;101065.38;5032684;28;45869;-65
2021/12/23 03:02:44;;;;;;;;;52.25;43.75;;;;;3.59;59.88;101085.34;5030799;28;45263;-65
2021/12/23 03:05:10;;;;;;;;;55.50;40.00;;;;;3.63;59.71;101090.00;5029617;28;45400;-68
2021/12/23 03:07:36;;;;;;;;;52.75;38.50;;;;;3.44;60.18;101072.13;5030100;28;45263;-64
2021/12/23 03:10:05;;;;;;;;;55.00;40.75;;;;;3.64;59.91;101088.28;5031477;28;45508;-65
2021/12/23 03:12:30;;;;;;;;;56.75;44.25;;;;;3.63;59.87;101083.78;5029589;28;44903;-67
2021/12/23 03:14:55;;;;;;;;;55.00;43.25;;;;;3.64;60.11;101080.34;5030083;28;45119;-67
2021/12/23 03:17:21;;;;;;;;;43.75;34.25;;;;;3.71;60.02;101076.34;5029614;28;45208;-65
2021/12/23 03:19:47;;;;;;;;;43.00;37.75;;;;;3.71;59.56;101074.59;5030289;28;45397;-64
2021/12/23 03:22:12;;;;;;;;;60.75;38.50;;;;;3.76;59.75;101070.50;5030297;28;45292;-68
2021/12/23 03:24:37;;;;;;;;;49.00;39.00;;;;;3.80;59.90;101074.25;5029853;28;45152;-66
2021/12/23 03:27:03;;;;;;;;;50.25;37.25;;;;;3.76;59.96;101061.66;5030726;28;45013;-67
2021/12/23 03:29:28;;;;;;;;;62.50;46.00;;;;;3.77;60.01;101060.84;5031108;28;45133;-66
2021/12/23 03:31:54;;;;;;;;;48.75;38.25;;;;;3.81;59.68;101066.41;5032523;28;45020;-66
2021/12/23 03:34:19;;;;;;;;;42.75;37.50;;;;;3.79;59.88;101059.19;5031215;28;45063;-68
2021/12/23 03:36:44;;;;;;;;;57.25;40.25;;;;;3.79;59.49;101049.53;5031859;28;45163;-65
2021/12/23 03:39:10;;;;;;;;;52.00;38.00;;;;;3.88;59.34;101050.06;5028184;28;46036;-65
2021/12/23 03:41:35;;;;;;;;;56.50;34.75;;;;;3.75;59.28;101033.44;5030243;28;45263;-66
2021/12/23 03:44:01;;;;;;;;;54.50;40.50;;;;;3.53;59.40;100997.81;5029741;28;44976;-66
2021/12/23 03:46:26;;;;;;;;;40.00;37.25;;;;;3.78;59.37;101023.00;5030408;28;45204;-65
2021/12/23 03:48:52;;;;;;;;;47.50;39.50;;;;;3.64;59.44;100998.44;5021006;28;45073;-65
2021/12/23 03:51:19;;;;;;;;;58.00;40.00;;;;;3.78;59.63;101038.88;5031555;28;44973;-68
2021/12/23 03:53:44;;;;;;;;;61.75;42.00;;;;;3.78;59.54;101042.44;5031641;28;45018;-65
2021/12/23 03:56:10;;;;;;;;;62.00;46.75;;;;;3.77;59.85;101034.41;5032607;28;45247;-65
2021/12/23 03:58:36;;;;;;;;;54.00;40.25;;;;;3.80;59.60;101031.97;5030566;28;46557;-65
2021/12/23 04:01:01;;;;;;;;;46.25;37.50;;;;;3.74;59.76;101021.91;5032068;28;44986;-66
2021/12/23 04:03:27;;;;;;;;;54.75;40.00;;;;;3.61;60.00;101022.97;5031968;28;44983;-64
2021/12/23 04:05:52;;;;;;;;;43.00;34.25;;;;;3.68;60.12;101027.78;5032101;28;45004;-65
2021/12/23 04:08:17;;;;;;;;;58.50;44.50;;;;;3.71;59.76;101020.84;5031125;28;45533;-66
2021/12/23 04:10:43;;;;;;;;;61.00;42.25;;;;;3.63;59.84;100997.53;5032668;28;45400;-63
2021/12/23 04:13:08;;;;;;;;;56.50;38.50;;;;;3.75;59.62;101010.53;5021736;28;44995;-65
2021/12/23 04:15:34;;;;;;;;;55.25;37.50;;;;;3.71;60.03;101007.63;5015780;28;45124;-65
2021/12/23 04:17:59;;;;;;;;;56.50;39.50;;;;;3.13;60.65;100914.53;5031685;28;45206;-67
2021/12/23 04:20:32;;;;;;;;;46.75;33.00;;;;;3.64;60.16;101014.28;5031736;28;45303;-65
2021/12/23 04:22:58;;;;;;;;;50.25;40.75;;;;;3.63;60.84;101013.38;5033120;28;45065;-67
2021/12/23 04:25:25;;;;;;;;;51.50;35.00;;;;;3.67;60.62;101001.25;5035096;28;45044;-67
2021/12/23 04:27:53;;;;;;;;;49.25;39.00;;;;;3.73;60.24;100996.34;5034923;28;45104;-65
2021/12/23 04:30:20;;;;;;;;;52.25;40.75;;;;;3.55;60.48;100958.25;5036166;28;45105;-64
2021/12/23 04:32:46;;;;;;;;;55.25;40.00;;;;;3.71;60.26;100982.09;5035004;28;45273;-65
2021/12/23 04:35:11;;;;;;;;;53.50;38.50;;;;;3.66;60.15;100973.00;5035380;28;44969;-64
2021/12/23 04:37:37;;;;;;;;;50.50;41.25;;;;;3.65;60.19;100963.28;5034380;28;45330;-65
2021/12/23 04:40:06;;;;;;;;;55.50;41.00;;;;;3.78;60.26;100979.00;5033555;28;45159;-64
2021/12/23 04:42:33;;;;;;;;;54.50;42.25;;;;;3.82;60.09;100986.28;5035093;28;45166;-65
2021/12/23 04:44:58;;;;;;;;;57.50;41.25;;;;;3.57;60.02;100946.97;5033349;28;45199;-65
2021/12/23 04:47:23;;;;;;;;;62.50;39.25;;;;;3.91;60.06;100983.28;5033048;28;45789;-64
2021/12/23 04:49:49;;;;;;;;;47.75;39.50;;;;;3.89;60.44;100984.88;5034574;28;45061;-65
2021/12/23 04:52:14;;;;;;;;;57.25;39.00;;;;;3.92;59.56;100977.16;5033782;28;45124;-65
2021/12/23 04:54:40;;;;;;;;;63.00;44.50;;;;;3.94;60.33;100983.41;5034300;28;45200;-67
2021/12/23 04:57:06;;;;;;;;;49.50;36.75;;;;;3.91;59.91;100966.47;5031649;28;45925;-66
2021/12/23 04:59:32;;;;;;;;;55.00;37.50;;;;;3.91;60.09;100974.41;5031544;28;45299;-65
2021/12/23 05:01:58;;;;;;;;;59.25;42.75;;;;;3.95;60.00;100963.22;5032717;28;45459;-66
2021/12/23 05:04:23;;;;;;;;;58.75;42.25;;;;;3.96;60.04;100963.28;5032840;28;45367;-65
2021/12/23 05:06:48;;;;;;;;;60.00;44.25;;;;;3.60;59.92;100912.81;5032835;28;46000;-67
2021/12/23 05:09:14;;;;;;;;;61.50;44.50;;;;;3.92;59.79;100941.88;5032680;28;44937;-65
2021/12/23 05:11:39;;;;;;;;;43.25;38.25;;;;;3.69;59.80;100926.53;5031968;28;45021;-66
2021/12/23 05:14:04;;;;;;;;;61.75;44.25;;;;;3.96;60.13;100970.28;5033263;28;44906;-66
2021/12/23 05:16:30;;;;;;;;;60.50;41.50;;;;;3.71;60.36;100945.09;5032196;28;45551;-65
2021/12/23 05:18:55;;;;;;;;;62.00;44.00;;;;;3.81;60.75;100968.63;5030168;28;45298;-67
2021/12/23 05:21:20;;;;;;;;;59.50;40.00;;;;;3.88;60.41;100951.38;5032611;28;44945;-66
2021/12/23 05:23:46;;;;;;;;;53.25;41.50;;;;;3.69;60.03;100905.38;5032765;28;45295;-67
2021/12/23 05:26:11;;;;;;;;;50.00;41.25;;;;;3.91;59.73;100925.13;5032385;28;44987;-64
2021/12/23 05:28:37;;;;;;;;;56.50;42.75;;;;;4.00;60.40;100940.56;5031848;28;45199;-65
2021/12/23 05:31:04;;;;;;;;;66.00;44.00;;;;;3.90;59.92;100943.53;5033683;28;44926;-64
2021/12/23 05:33:29;;;;;;;;;53.75;39.25;;;;;3.44;60.52;100855.53;5033976;28;44926;-65
2021/12/23 05:35:55;;;;;;;;;49.25;37.50;;;;;3.74;60.65;100891.53;5032357;28;45235;-67
2021/12/23 05:38:21;;;;;;;;;56.50;41.00;;;;;4.02;60.26;100931.00;5031861;28;45230;-68
2021/12/23 05:40:46;;;;;;;;;60.25;43.75;;;;;4.03;60.26;100930.19;5031499;28;45023;-67
2021/12/23 05:43:12;;;;;;;;;52.50;41.50;;;;;3.91;60.47;100917.19;5031632;28;45106;-67
2021/12/23 05:45:37;;;;;;;;;48.50;38.00;;;;;3.96;60.62;100928.94;5030855;28;45644;-67
2021/12/23 05:48:03;;;;;;;;;55.50;44.00;;;;;3.96;60.15;100933.28;5030822;28;45311;-65
2021/12/23 05:50:28;;;;;;;;;59.25;41.75;;;;;3.58;60.49;100865.97;5031055;28;45372;-65
2021/12/23 05:52:53;;;;;;;;;56.75;43.25;;;;;3.89;60.63;100932.03;5031997;28;45260;-66
2021/12/23 05:55:20;;;;;;;;;58.25;42.50;;;;;3.96;60.75;100925.34;5031162;28;46119;-65
2021/12/23 05:57:46;;;;;;;;;56.75;44.50;;;;;4.01;60.69;100924.81;5030444;28;45180;-67
2021/12/23 06:00:17;;;;;;;;;61.50;44.00;;;;;4.05;60.27;100926.78;5033310;28;45080;-65
2021/12/23 06:02:42;;;;;;;;;64.00;44.25;;;;;4.04;60.62;100916.13;5032789;28;45237;-66
2021/12/23 06:05:08;;;;;;;;;58.25;42.75;;;;;4.06;60.48;100938.28;5031140;28;46602;-66
2021/12/23 06:07:33;;;;;;;;;56.75;42.75;;;;;4.01;61.00;100930.09;5033034;28;44963;-66
2021/12/23 06:09:59;;;;;;;;;53.00;41.25;;;;;4.04;60.90;100927.63;5032902;28;45065;-65
2021/12/23 06:12:24;;;;;;;;;51.25;40.00;;;;;3.92;60.99;100908.41;5032879;28;45202;-64
2021/12/23 06:14:50;;;;;;;;;57.00;44.00;;;;;4.10;60.31;100932.31;5033920;28;46087;-66
2021/12/23 06:17:15;;;;;;;;;55.75;41.00;;;;;4.09;60.82;100924.31;5033271;28;45281;-65
2021/12/23 06:19:41;;;;;;;;;67.00;49.25;;;;;4.09;60.89;100926.94;5034710;28;45034;-67
2021/12/23 06:22:06;;;;;;;;;70.00;50.25;;;;;4.12;60.84;100919.19;5034712;28;44953;-65
2021/12/23 06:24:31;;;;;;;;;60.00;44.50;;;;;4.13;61.09;100928.94;5031780;28;46137;-66
2021/12/23 06:26:57;;;;;;;;;64.00;49.00;;;;;4.12;60.80;100925.38;5032942;28;44911;-66
2021/12/23 06:29:22;;;;;;;;;62.75;45.75;;;;;4.14;61.14;100933.41;5032079;28;44902;-66
2021/12/23 06:31:48;;;;;;;;;55.25;41.50;;;;;3.98;60.76;100900.84;5031915;28;45074;-65
2021/12/23 06:34:13;;;;;;;;;66.25;42.25;;;;;4.11;60.71;100920.94;5032072;28;45552;-66
2021/12/23 06:36:39;;;;;;;;;64.00;46.75;;;;;4.03;60.79;100911.66;5032782;28;45125;-66
2021/12/23 06:39:06;;;;;;;;;54.25;42.25;;;;;4.23;60.76;100924.25;5032809;28;44922;-64
2021/12/23 06:41:31;;;;;;;;;63.75;50.00;;;;;4.32;60.73;100941.44;5033320;28;45123;-68
2021/12/23 06:43:56;;;;;;;;;62.75;46.00;;;;;4.37;61.05;100939.94;5032533;28;45750;-67
2021/12/23 06:46:22;;;;;;;;;44.75;38.75;;;;;4.41;60.25;100937.56;5031707;28;45101;-65
2021/12/23 06:48:47;;;;;;;;;67.50;45.75;;;;;4.43;60.67;100932.34;5031896;28;45117;-66
2021/12/23 06:51:12;;;;;;;;;57.50;42.50;;;;;4.22;60.08;100887.13;5032240;28;45025;-65
2021/12/23 06:53:38;;;;;;;;;57.00;39.50;;;;;4.46;60.07;100921.94;5031073;28;46184;-68
2021/12/23 06:56:04;;;;;;;;;69.50;48.25;;;;;4.43;60.50;100927.06;5029792;28;45324;-65
2021/12/23 06:58:31;;;;;;;;;61.25;45.00;;;;;4.42;60.34;100923.50;5029888;28;45594;-66
2021/12/23 07:00:58;;;;;;;;;59.50;42.25;;;;;4.38;61.10;100925.91;5012727;28;45272;-69
2021/12/23 07:03:30;;;;;;;;;59.25;43.50;;;;;4.38;60.60;100921.50;5019890;28;45537;-66
2021/12/23 07:06:04;;;;;;;;;50.00;40.75;;;;;4.45;60.35;100938.63;5032610;28;45184;-67
2021/12/23 07:08:30;;;;;;;;;53.75;40.00;;;;;4.51;60.71;100941.59;5031286;28;45004;-66
2021/12/23 07:10:56;;;;;;;;;51.75;43.00;;;;;4.47;60.74;100921.13;5031421;28;45288;-66
2021/12/23 07:13:21;;;;;;;;;54.50;42.75;;;;;4.60;60.35;100938.53;5029420;28;45421;-64
2021/12/23 07:15:47;;;;;;;;;49.25;38.00;;;;;4.39;60.39;100906.56;5028591;28;45365;-67
2021/12/23 07:18:13;;;;;;;;;57.00;39.50;;;;;4.18;59.91;100864.91;5030020;28;45131;-68
2021/12/23 07:20:38;;;;;;;;;62.00;49.50;;;;;4.39;60.23;100894.25;5031053;28;44924;-67
2021/12/23 07:23:04;;;;;;;;;59.25;44.00;;;;;4.69;59.77;100946.97;5031045;28;45481;-67
2021/12/23 07:25:29;;;;;;;;;65.75;42.75;;;;;4.74;60.12;100948.13;5031288;28;45266;-67
2021/12/23 07:27:55;;;;;;;;;60.00;44.00;;;;;4.41;60.13;100886.41;5031894;28;45219;-66
2021/12/23 07:30:21;;;;;;;;;57.25;45.00;;;;;4.61;60.13;100930.69;5032578;28;44985;-66
2021/12/23 07:32:48;;;;;;;;;59.00;45.25;;;;;4.79;60.40;100958.97;5029975;28;45355;-65
2021/12/23 07:35:14;;;;;;;;;68.25;48.00;;;;;4.83;60.33;100953.00;5020924;28;45450;-67
2021/12/23 07:37:40;;;;;;;;;67.75;48.75;;;;;4.90;60.27;100952.50;5025354;28;45055;-66
2021/12/23 07:40:06;;;;;;;;;54.50;42.00;;;;;4.92;59.52;100944.66;5030049;28;45475;-66
2021/12/23 07:42:33;;;;;;;;;42.25;38.25;;;;;4.94;59.65;100950.91;5030343;28;45906;-67
2021/12/23 07:45:01;;;;;;;;;50.50;42.00;;;;;4.80;59.79;100923.72;5028843;28;45267;-66
2021/12/23 07:47:26;;;;;;;;;63.25;43.00;;;;;4.99;59.93;100958.25;5023645;28;45327;-67
2021/12/23 07:49:52;;;;;;;;;57.00;44.00;;;;;4.83;60.36;100925.63;5014812;28;45565;-67
2021/12/23 07:52:17;;;;;;;;;61.00;43.50;;;;;5.02;59.76;100946.94;5014132;28;46208;-66
2021/12/23 07:54:43;;;;;;;;;61.00;45.50;;;;;5.05;59.38;100956.75;5013525;28;45529;-66
2021/12/23 07:57:08;;;;;;;;;72.00;52.75;;;;;5.04;59.62;100957.59;5014529;28;45365;-66
2021/12/23 07:59:33;;;;;;;;;52.75;37.25;;;;;5.00;59.70;100943.31;5017524;28;45358;-65
2021/12/23 08:01:59;;;;;;;;;64.25;47.25;;;;;5.05;60.14;100946.16;5017576;28;45560;-65
2021/12/23 08:04:25;;;;;;;;;51.00;41.75;;;;;5.10;59.89;100939.41;5017119;28;45335;-66
2021/12/23 08:06:55;;;;;;;;;57.25;44.75;;;;;5.16;59.55;100951.22;5017739;28;45495;-66
2021/12/23 08:09:21;;;;;;;;;55.75;42.50;;;;;5.04;59.89;100913.50;5017955;28;45303;-67
2021/12/23 08:11:47;;;;;;;;;58.50;44.00;;;;;5.25;60.03;100936.63;5015835;28;46329;-64
2021/12/23 08:14:13;;;;;;;;;58.50;45.50;;;;;5.11;60.05;100923.56;5016135;28;45307;-64
2021/12/23 08:16:38;;;;;;;;;60.50;47.50;;;;;5.02;59.29;100879.84;5016897;28;45363;-66
2021/12/23 08:19:04;;;;;;;;;59.25;44.25;;;;;5.41;59.10;100938.28;5017220;28;45667;-66
2021/12/23 08:21:29;;;;;;;;;61.25;45.25;;;;;5.47;59.07;100942.13;5016808;28;47256;-65
2021/12/23 08:23:55;;;;;;;;;57.75;41.00;;;;;5.38;59.18;100922.22;5017010;28;45406;-64
2021/12/23 08:26:27;;;;;;;;;49.50;41.00;;;;;5.49;59.25;100929.91;5016436;28;45524;-64
2021/12/23 08:28:53;;;;;;;;;57.00;41.25;;;;;5.52;59.31;100921.19;5017031;28;45525;-64
2021/12/23 08:31:20;;;;;;;;;63.75;44.50;;;;;5.57;58.82;100946.16;5016711;28;46172;-65
2021/12/23 08:33:46;;;;;;;;;60.25;45.25;;;;;5.43;58.78;100886.25;5017187;28;45543;-64
2021/12/23 08:36:12;;;;;;;;;57.25;42.50;;;;;5.64;59.08;100919.16;5011618;28;45261;-65
2021/12/23 08:38:39;;;;;;;;;63.25;41.75;;;;;5.68;59.12;100933.44;5015455;28;45324;-65
2021/12/23 08:41:05;;;;;;;;;63.75;46.00;;;;;5.65;58.33;100928.00;5016971;28;45583;-64
2021/12/23 08:43:30;;;;;;;;;63.50;49.00;;;;;5.68;59.10;100918.44;5016765;28;45322;-64
2021/12/23 08:45:55;;;;;;;;;51.50;41.50;;;;;5.72;58.44;100922.16;5013912;28;45350;-64
2021/12/23 08:48:21;;;;;;;;;60.00;39.25;;;;;5.63;58.82;100898.75;5013565;28;45711;-65
2021/12/23 08:50:46;;;;;;;;;53.25;44.25;;;;;5.72;58.59;100915.13;5016522;28;46111;-63
2021/12/23 08:53:11;;;;;;;;;61.00;46.00;;;;;5.80;58.66;100906.63;5016108;28;45470;-63
2021/12/23 08:55:37;;;;;;;;;60.50;45.00;;;;;5.38;58.74;100841.03;5007086;28;45419;-63
2021/12/23 08:58:04;;;;;;;;;54.00;45.00;;;;;5.83;58.33;100920.03;5008859;28;45375;-62
2021/12/23 09:00:31;;;;;;;;;45.50;37.25;;;;;5.81;59.22;100919.06;4999447;28;46328;-65
2021/12/23 09:02:56;;;;;;;;;59.00;42.75;;;;;5.89;58.70;100920.34;4999631;28;45421;-64
2021/12/23 09:05:22;;;;;;;;;60.75;42.25;;;;;5.92;58.73;100917.81;5015905;28;45445;-64
2021/12/23 09:07:50;;;;;;;;;60.00;43.25;;;;;5.95;58.76;100920.59;5016449;28;45383;-65
2021/12/23 09:10:16;;;;;;;;;62.00;46.25;;;;;5.98;58.80;100912.84;5001736;28;45989;-63
2021/12/23 09:12:42;;;;;;;;;59.75;45.00;;;;;6.01;58.68;100923.59;5014767;28;45419;-64
2021/12/23 09:15:08;;;;;;;;;58.00;42.75;;;;;5.99;58.39;100912.00;5010971;28;45445;-66
2021/12/23 09:17:34;;;;;;;;;63.00;47.00;;;;;5.86;58.70;100889.25;5004769;28;45462;-64
2021/12/23 09:19:59;;;;;;;;;67.75;49.25;;;;;5.95;58.97;100898.50;5003214;28;45905;-65
2021/12/23 09:22:25;;;;;;;;;54.50;41.75;;;;;6.06;58.54;100910.56;5009822;28;45633;-64
2021/12/23 09:24:55;;;;;;;;;62.50;45.50;;;;;6.20;59.09;100928.03;5011934;28;45940;-64
2021/12/23 09:35:01;;;;;;;;;55.75;39.00;;;;;6.28;59.42;100910.69;5013231;28;45563;-64
2021/12/23 09:37:28;;;;;;;;;47.25;38.50;;;;;6.33;58.70;100926.84;5013978;28;45493;-63
2021/12/23 09:39:55;;;;;;;;;47.75;40.50;;;;;6.26;59.19;100895.56;5015019;28;46327;-64
2021/12/23 09:42:27;;;;;;;;;55.25;41.00;;;;;6.41;58.95;100913.94;5015769;28;45645;-64
2021/12/23 09:44:59;;;;;;;;;61.50;42.25;;;;;6.51;58.86;100915.25;5001152;28;45394;-63
2021/12/23 09:47:30;;;;;;;;;46.00;37.25;;;;;6.49;58.81;100901.03;5011621;28;45560;-64
2021/12/23 09:50:00;;;;;;;;;59.75;44.75;;;;;6.51;58.93;100904.66;5001283;28;45402;-63
2021/12/23 09:52:32;;;;;;;;;54.75;42.25;;;;;6.53;59.07;100897.66;5004876;28;45458;-63
2021/12/23 09:55:01;;;;;;;;;54.25;44.25;;;;;6.44;59.14;100871.63;5010119;28;45570;-65
2021/12/23 09:57:28;;;;;;;;;52.00;39.75;;;;;6.66;58.95;100909.72;4999059;28;45275;-64
2021/12/23 09:59:54;;;;;;;;;42.75;35.00;;;;;6.70;59.14;100901.97;5014485;28;45393;-63
2021/12/23 10:02:19;;;;;;;;;51.50;39.25;;;;;6.73;58.95;100898.53;5005170;28;45233;-64
2021/12/23 10:04:45;;;;;;;;;53.75;41.75;;;;;6.66;59.22;100886.75;5007918;28;45383;-62
2021/12/23 10:07:10;;;;;;;;;56.50;42.50;;;;;6.65;59.77;100898.22;4999069;28;45416;-63
2021/12/23 10:31:05;;;;;;;;;46.00;38.50;;;;;6.91;61.61;100862.16;4999909;28;46139;-63
2021/12/23 10:33:47;;;;;;;;;51.50;39.75;;;;;6.96;62.08;100865.00;5014145;28;45421;-62
2021/12/23 10:38:47;;;;;;;;;57.25;41.50;;;;;7.07;61.30;100858.41;5007017;28;45308;-64
2021/12/23 10:41:25;;;;;;;;;49.25;38.75;;;;;7.00;61.65;100837.75;4997920;28;46619;-64
2021/12/23 10:43:58;;;;;;;;;53.50;42.75;;;;;7.20;61.64;100851.88;5009734;28;45573;-64
2021/12/23 10:46:31;;;;;;;;;48.50;41.75;;;;;7.26;61.67;100848.53;4992865;28;45427;-64
2021/12/23 10:52:17;;;;;;;;;44.75;36.75;;;;;7.34;61.61;100836.47;4994539;28;46141;-63
2021/12/23 11:00:18;;;;;;;;;52.75;38.00;;;;;7.40;62.54;100838.50;4994594;28;45443;-64
2021/12/23 11:03:09;;;;;;;;;56.75;42.00;;;;;7.30;62.49;100811.53;4997560;28;45458;-64
2021/12/23 11:05:43;;;;;;;;;48.00;37.00;;;;;7.49;62.52;100823.81;4994082;28;45405;-65
2021/12/23 11:32:01;;;;;;;;;51.50;34.50;;;;;8.01;64.08;100808.97;4993747;28;45355;-64
2021/12/23 11:41:05;;;;;;;;;42.75;34.25;;;;;8.10;64.57;100805.72;4995476;28;45394;-65
2021/12/23 11:43:49;;;;;;;;;47.75;35.75;;;;;8.12;65.83;100801.41;4993431;28;45322;-65
2021/12/23 11:46:18;;;;;;;;;45.75;34.00;;;;;8.21;65.70;100812.38;4993308;28;45488;-64
2021/12/23 11:48:45;;;;;;;;;45.50;34.00;;;;;8.19;65.50;100790.13;4993494;28;45355;-65
2021/12/23 11:51:19;;;;;;;;;40.25;32.50;;;;;8.32;66.39;100796.81;5012348;28;45701;-67
2021/12/23 11:53:48;;;;;;;;;44.50;35.00;;;;;8.38;66.76;100790.78;4993474;28;45465;-66
2021/12/23 11:56:16;;;;;;;;;41.75;31.50;;;;;8.45;66.51;100793.75;5002467;28;45422;-66
2021/12/23 11:58:45;;;;;;;;;31.75;27.75;;;;;8.47;66.58;100783.16;5013278;28;45527;-66
2021/12/23 12:01:13;;;;;;;;;38.25;29.75;;;;;8.55;66.72;100778.13;5012846;28;45383;-64
2021/12/23 12:03:52;;;;;;;;;43.25;30.25;;;;;8.59;66.86;100783.59;5013100;28;45434;-65
2021/12/23 12:06:20;;;;;;;;;37.75;31.50;;;;;8.17;67.03;100717.31;5012958;28;46461;-66
2021/12/23 12:08:46;;;;;;;;;43.25;34.75;;;;;8.62;67.42;100782.81;5011792;28;45407;-65
2021/12/23 12:11:25;;;;;;;;;36.00;31.25;;;;;8.37;67.42;100749.94;5013493;28;45466;-67
2021/12/23 12:13:51;;;;;;;;;34.25;28.25;;;;;8.54;67.58;100770.97;5009042;28;45507;-65
2021/12/23 12:16:31;;;;;;;;;33.25;27.50;;;;;8.61;68.24;100771.25;5011198;28;46359;-65
2021/12/23 12:18:57;;;;;;;;;49.50;34.50;;;;;8.58;67.34;100755.16;5017816;28;45377;-64
2021/12/23 12:21:31;;;;;;;;;35.25;34.50;;;;;8.64;68.21;100749.13;5031776;28;45447;-66
2021/12/23 12:24:14;;;;;;;;;38.75;32.00;;;;;8.46;67.20;100715.72;5014299;28;45628;-67
2021/12/23 12:26:54;;;;;;;;;30.00;24.00;;;;;8.35;66.91;100670.88;5011377;28;46511;-66
2021/12/23 12:29:25;;;;;;;;;44.50;35.50;;;;;8.86;67.54;100748.13;5010335;28;45694;-64
2021/12/23 12:31:51;;;;;;;;;36.75;33.25;;;;;8.86;67.08;100740.13;5012180;28;45522;-65
2021/12/23 12:34:19;;;;;;;;;44.75;32.50;;;;;8.85;66.44;100722.31;5011425;28;45654;-64
2021/12/23 12:36:50;;;;;;;;;22.25;17.00;;;;;8.94;65.68;100719.97;5012439;28;46106;-66